sensor_id;sensor_type;location;lat;lon;timestamp;P1;durP1;ratioP1;P2;durP2;ratioP2
48094;SDS011;33874;52.070;-0.516;2023-06-22T21:20:27;6.60;;;3.90;;
48094;SDS011;33874;52.070;-0.516;2023-06-22T21:24:22;8.40;;;4.30;;
48094;SDS011;33874;52.070;-0.516;2023-06-22T21:27:15;11.80;;;3.80;;
48094;SDS011;33874;52.070;-0.516;2023-06-22T21:29:43;6.70;;;3.80;;
48094;SDS011;33874;52.070;-0.516;2023-06-22T21:32:11;9.50;;;4.20;;
48094;SDS011;33874;52.070;-0.516;2023-06-22T21:34:39;7.40;;;3.90;;
48094;SDS011;33874;52.070;-0.516;2023-06-22T21:37:07;6.90;;;3.90;;
48094;SDS011;33874;52.070;-0.516;2023-06-22T21:39:35;7.70;;;3.80;;
48094;SDS011;33874;52.070;-0.516;2023-06-22T21:42:04;8.70;;;3.60;;
48094;SDS011;33874;52.070;-0.516;2023-06-22T21:45:07;8.60;;;4.00;;
48094;SDS011;33874;52.070;-0.516;2023-06-22T21:47:37;5.50;;;3.50;;
48094;SDS011;33874;52.070;-0.516;2023-06-22T21:50:05;8.40;;;3.60;;
48094;SDS011;33874;52.070;-0.516;2023-06-22T21:52:33;10.10;;;4.00;;
48094;SDS011;33874;52.070;-0.516;2023-06-22T21:58:11;6.60;;;3.60;;
48094;SDS011;33874;52.070;-0.516;2023-06-22T22:17:16;7.70;;;3.60;;
48094;SDS011;33874;52.070;-0.516;2023-06-22T22:19:44;8.70;;;3.80;;
48094;SDS011;33874;52.070;-0.516;2023-06-22T22:22:12;7.90;;;4.30;;
48094;SDS011;33874;52.070;-0.516;2023-06-22T22:24:41;7.40;;;3.70;;
48094;SDS011;33874;52.070;-0.516;2023-06-22T22:27:14;6.10;;;3.20;;
48094;SDS011;33874;52.070;-0.516;2023-06-22T22:29:42;6.70;;;3.70;;
48094;SDS011;33874;52.070;-0.516;2023-06-22T22:32:10;8.40;;;4.00;;
48094;SDS011;33874;52.070;-0.516;2023-06-22T22:34:46;6.70;;;3.90;;
48094;SDS011;33874;52.070;-0.516;2023-06-22T22:37:15;5.40;;;3.80;;
48094;SDS011;33874;52.070;-0.516;2023-06-22T22:39:43;6.10;;;4.00;;
48094;SDS011;33874;52.070;-0.516;2023-06-22T22:42:11;7.00;;;3.20;;
48094;SDS011;33874;52.070;-0.516;2023-06-22T22:44:39;7.20;;;3.90;;
48094;SDS011;33874;52.070;-0.516;2023-06-22T22:47:07;8.00;;;3.70;;
48094;SDS011;33874;52.070;-0.516;2023-06-22T22:49:35;6.30;;;3.80;;
48094;SDS011;33874;52.070;-0.516;2023-06-22T22:52:04;5.30;;;3.50;;
48094;SDS011;33874;52.070;-0.516;2023-06-22T22:54:39;5.40;;;4.00;;
48094;SDS011;33874;52.070;-0.516;2023-06-22T22:57:15;8.10;;;4.20;;
48094;SDS011;33874;52.070;-0.516;2023-06-22T22:59:43;5.30;;;3.80;;
48094;SDS011;33874;52.070;-0.516;2023-06-22T23:02:10;9.00;;;3.80;;
48094;SDS011;33874;52.070;-0.516;2023-06-22T23:04:39;9.30;;;4.20;;
48094;SDS011;33874;52.070;-0.516;2023-06-22T23:07:07;8.70;;;4.10;;
48094;SDS011;33874;52.070;-0.516;2023-06-22T23:16:09;13.80;;;4.00;;
48094;SDS011;33874;52.070;-0.516;2023-06-22T23:18:47;8.20;;;4.70;;
48094;SDS011;33874;52.070;-0.516;2023-06-22T23:21:15;8.90;;;4.20;;
48094;SDS011;33874;52.070;-0.516;2023-06-22T23:24:14;11.10;;;4.20;;
48094;SDS011;33874;52.070;-0.516;2023-06-22T23:26:52;7.50;;;4.00;;
48094;SDS011;33874;52.070;-0.516;2023-06-22T23:30:02;7.40;;;3.90;;
48094;SDS011;33874;52.070;-0.516;2023-06-22T23:36:19;11.90;;;4.20;;
48094;SDS011;33874;52.070;-0.516;2023-06-22T23:40:02;7.70;;;4.30;;
48094;SDS011;33874;52.070;-0.516;2023-06-22T23:45:39;8.70;;;4.70;;
48094;SDS011;33874;52.070;-0.516;2023-06-22T23:48:44;8.80;;;4.40;;
48094;SDS011;33874;52.070;-0.516;2023-06-22T23:51:37;8.30;;;4.70;;
48094;SDS011;33874;52.070;-0.516;2023-06-22T23:54:34;9.60;;;4.90;;
48094;SDS011;33874;52.070;-0.516;2023-06-22T23:57:16;19.90;;;5.70;;
48094;SDS011;33874;52.070;-0.516;2023-06-22T23:59:44;9.60;;;4.80;;
